createdAt,value
2018-12-31T00:00:02.701Z,8.20
2018-12-31T00:02:32.131Z,8.20
2018-12-31T00:05:00.599Z,8.20
2018-12-31T00:07:29.336Z,8.20
2018-12-31T00:09:57.738Z,8.20
2018-12-31T00:12:26.163Z,8.30
2018-12-31T00:14:54.566Z,8.30
2018-12-31T00:17:22.987Z,8.30
2018-12-31T00:19:51.391Z,8.40
2018-12-31T00:22:20.119Z,8.30
2018-12-31T00:24:48.530Z,8.40
2018-12-31T00:27:16.954Z,8.40
2018-12-31T00:29:45.356Z,8.40
2018-12-31T00:32:13.752Z,8.40
2018-12-31T00:34:42.176Z,8.40
2018-12-31T00:37:10.583Z,8.50
2018-12-31T00:39:39.275Z,8.40
2018-12-31T00:42:07.975Z,8.40
2018-12-31T00:44:36.658Z,8.30
2018-12-31T00:47:05.063Z,8.30
2018-12-31T00:49:33.482Z,8.30
2018-12-31T00:52:01.873Z,8.40
2018-12-31T00:54:30.581Z,8.30
2018-12-31T00:56:58.977Z,8.30
2018-12-31T00:59:27.385Z,8.40
2018-12-31T01:01:56.135Z,8.50
2018-12-31T01:04:24.554Z,8.50
2018-12-31T01:06:53.030Z,8.50
2018-12-31T01:09:21.440Z,8.50
2018-12-31T01:11:50.153Z,8.50
2018-12-31T01:14:18.847Z,8.50
2018-12-31T01:16:47.538Z,8.50
2018-12-31T01:19:15.955Z,8.40
2018-12-31T01:21:44.603Z,8.40
2018-12-31T01:24:13.005Z,8.50
2018-12-31T01:26:41.666Z,8.50
2018-12-31T01:29:10.078Z,8.50
2018-12-31T01:31:38.481Z,8.60
2018-12-31T01:34:06.895Z,8.60
2018-12-31T01:36:35.303Z,8.60
2018-12-31T01:39:05.506Z,8.60
2018-12-31T01:41:34.204Z,8.60
2018-12-31T01:44:02.881Z,8.60
2018-12-31T01:46:31.290Z,8.60
2018-12-31T01:48:59.706Z,8.70
2018-12-31T01:51:28.110Z,8.60
2018-12-31T01:53:56.823Z,8.60
2018-12-31T01:56:25.230Z,8.60
2018-12-31T01:58:53.617Z,8.60
2018-12-31T02:01:22.027Z,8.60
2018-12-31T02:03:50.740Z,8.60
2018-12-31T02:06:19.146Z,8.60
2018-12-31T02:08:47.799Z,8.60
2018-12-31T02:11:16.503Z,8.60
2018-12-31T02:13:44.885Z,8.70
2018-12-31T02:16:13.306Z,8.70
2018-12-31T02:18:42.031Z,8.70
2018-12-31T02:21:10.451Z,8.70
2018-12-31T02:23:38.858Z,8.70
2018-12-31T02:26:07.257Z,8.70
2018-12-31T02:28:35.668Z,8.80
2018-12-31T02:31:04.083Z,8.70
2018-12-31T02:33:32.825Z,8.80
2018-12-31T02:36:01.510Z,8.80
2018-12-31T02:38:29.913Z,8.80
2018-12-31T02:40:58.383Z,8.80
2018-12-31T02:43:26.789Z,8.80
2018-12-31T02:45:55.387Z,8.80
2018-12-31T02:48:23.782Z,8.70
2018-12-31T02:50:52.611Z,8.70
2018-12-31T02:53:21.011Z,8.60
2018-12-31T02:55:49.665Z,8.60
2018-12-31T02:58:18.074Z,8.70
2018-12-31T03:00:46.488Z,8.70
2018-12-31T03:03:14.894Z,8.60
2018-12-31T03:05:43.595Z,8.70
2018-12-31T03:08:12.012Z,8.60
2018-12-31T03:10:40.419Z,8.60
2018-12-31T03:13:09.065Z,8.70
2018-12-31T03:15:37.475Z,8.70
2018-12-31T03:18:06.208Z,8.60
2018-12-31T03:20:34.894Z,8.70
2018-12-31T03:23:03.579Z,8.70
2018-12-31T03:25:31.985Z,8.80
2018-12-31T03:28:00.405Z,8.80
2018-12-31T03:30:29.057Z,8.80
2018-12-31T03:32:57.484Z,8.80
2018-12-31T03:35:25.899Z,8.80
2018-12-31T03:37:54.315Z,8.80
2018-12-31T03:40:22.723Z,8.80
2018-12-31T03:42:51.427Z,8.70
2018-12-31T03:45:20.120Z,8.60
2018-12-31T03:47:48.556Z,8.60
2018-12-31T03:50:17.287Z,8.60
2018-12-31T03:52:45.975Z,8.60
2018-12-31T03:55:14.380Z,8.70
2018-12-31T03:57:42.781Z,8.70
2018-12-31T04:00:11.195Z,8.60
2018-12-31T04:02:39.607Z,8.60
2018-12-31T04:05:08.050Z,8.70
2018-12-31T04:07:36.524Z,8.70
2018-12-31T04:10:05.381Z,8.80
2018-12-31T04:12:34.032Z,8.80
2018-12-31T04:15:02.723Z,8.80
2018-12-31T04:17:31.142Z,8.70
2018-12-31T04:19:59.558Z,8.70
2018-12-31T04:22:28.372Z,8.60
2018-12-31T04:24:57.059Z,8.80
2018-12-31T04:27:25.478Z,8.80
2018-12-31T04:29:53.897Z,8.80
2018-12-31T04:32:22.301Z,8.80
2018-12-31T04:34:50.705Z,8.80
2018-12-31T04:37:19.128Z,8.80
2018-12-31T04:39:47.538Z,8.80
2018-12-31T04:42:15.946Z,8.80
2018-12-31T04:44:44.364Z,8.80
2018-12-31T04:47:13.091Z,8.80
2018-12-31T04:49:41.767Z,8.70
2018-12-31T04:52:10.178Z,8.70
2018-12-31T04:54:38.585Z,8.80
2018-12-31T04:57:06.990Z,8.70
2018-12-31T04:59:35.698Z,8.80
2018-12-31T05:02:04.395Z,8.80
2018-12-31T05:04:32.805Z,8.80
2018-12-31T05:07:01.222Z,8.80
2018-12-31T05:09:29.711Z,8.70
2018-12-31T05:11:58.411Z,8.70
2018-12-31T05:14:26.827Z,8.60
2018-12-31T05:16:55.474Z,8.70
2018-12-31T05:19:24.157Z,8.70
2018-12-31T05:21:52.575Z,8.70
2018-12-31T05:24:20.995Z,8.70
2018-12-31T05:26:49.716Z,8.70
2018-12-31T05:29:18.401Z,8.70
2018-12-31T05:31:47.091Z,8.80
2018-12-31T05:34:15.767Z,8.80
2018-12-31T05:36:44.176Z,8.80
2018-12-31T05:39:12.599Z,8.80
2018-12-31T05:41:41.015Z,8.80
2018-12-31T05:44:09.435Z,8.80
2018-12-31T05:46:37.847Z,8.80
2018-12-31T05:49:06.263Z,8.70
2018-12-31T05:51:34.666Z,8.80
2018-12-31T05:54:03.414Z,8.80
2018-12-31T05:56:32.103Z,8.80
2018-12-31T05:59:00.518Z,8.80
2018-12-31T06:01:28.921Z,8.80
2018-12-31T06:03:57.331Z,8.70
2018-12-31T06:06:25.734Z,8.80
2018-12-31T06:08:54.159Z,8.80
2018-12-31T06:11:22.566Z,8.80
2018-12-31T06:13:51.271Z,8.90
2018-12-31T06:16:19.964Z,8.80
2018-12-31T06:18:48.390Z,8.80
2018-12-31T06:21:17.127Z,8.90
2018-12-31T06:23:45.811Z,8.90
2018-12-31T06:26:14.230Z,8.90
2018-12-31T06:28:42.644Z,8.90
2018-12-31T06:31:11.063Z,8.90
2018-12-31T06:33:39.475Z,8.90
2018-12-31T06:36:07.877Z,8.90
2018-12-31T06:38:36.287Z,8.90
2018-12-31T06:41:04.708Z,9.00
2018-12-31T06:43:33.363Z,8.90
2018-12-31T06:46:02.047Z,8.90
2018-12-31T06:48:30.756Z,8.90
2018-12-31T06:50:59.174Z,8.90
2018-12-31T06:53:27.582Z,8.90
2018-12-31T06:55:56.278Z,9.00
2018-12-31T06:58:25.548Z,9.00
2018-12-31T07:00:54.080Z,9.00
2018-12-31T07:03:22.747Z,8.90
2018-12-31T07:05:51.169Z,9.00
2018-12-31T07:08:19.919Z,8.90
2018-12-31T07:10:48.603Z,8.90
2018-12-31T07:13:17.022Z,8.90
2018-12-31T07:15:45.767Z,8.90
2018-12-31T07:18:14.773Z,9.00
2018-12-31T07:20:43.187Z,8.90
2018-12-31T07:23:11.935Z,8.90
2018-12-31T07:25:40.346Z,9.00
2018-12-31T07:28:08.755Z,8.90
2018-12-31T07:30:37.170Z,9.00
2018-12-31T07:33:05.865Z,9.00
2018-12-31T07:35:34.290Z,9.10
2018-12-31T07:38:02.682Z,9.00
2018-12-31T07:40:31.099Z,9.10
2018-12-31T07:42:59.506Z,9.10
2018-12-31T07:45:27.923Z,9.10
2018-12-31T07:47:56.334Z,9.20
2018-12-31T07:50:24.746Z,9.20
2018-12-31T07:52:53.402Z,9.20
2018-12-31T07:55:21.812Z,9.20
2018-12-31T07:57:50.231Z,9.20
2018-12-31T08:00:18.642Z,9.20
2018-12-31T08:02:47.063Z,9.20
2018-12-31T08:05:15.917Z,9.20
2018-12-31T08:07:44.594Z,9.20
2018-12-31T08:10:13.007Z,9.20
2018-12-31T08:12:41.424Z,9.20
2018-12-31T08:15:09.826Z,9.30
2018-12-31T08:17:38.523Z,9.20
2018-12-31T08:20:06.931Z,9.20
2018-12-31T08:22:35.345Z,9.20
2018-12-31T08:25:04.117Z,9.30
2018-12-31T08:27:32.534Z,9.20
2018-12-31T08:30:01.238Z,9.20
2018-12-31T08:32:29.654Z,9.20
2018-12-31T08:34:58.062Z,9.20
2018-12-31T08:37:26.482Z,9.20
2018-12-31T08:39:54.897Z,9.20
2018-12-31T08:42:24.187Z,9.20
2018-12-31T08:44:52.856Z,9.20
2018-12-31T08:47:21.543Z,9.20
2018-12-31T08:49:50.223Z,9.20
2018-12-31T08:52:18.643Z,9.20
2018-12-31T08:54:47.403Z,9.20
2018-12-31T08:57:16.070Z,9.20
2018-12-31T08:59:44.764Z,9.20
2018-12-31T09:02:13.182Z,9.10
2018-12-31T09:04:41.831Z,9.20
2018-12-31T09:07:10.515Z,9.30
2018-12-31T09:09:38.922Z,9.30
2018-12-31T09:12:07.608Z,9.90
2018-12-31T09:14:36.272Z,10.50
2018-12-31T09:17:04.708Z,10.10
2018-12-31T09:19:33.466Z,9.70
2018-12-31T09:22:01.874Z,9.70
2018-12-31T09:24:30.294Z,9.60
2018-12-31T09:26:58.705Z,9.60
2018-12-31T09:29:27.464Z,9.50
2018-12-31T09:31:55.871Z,9.60
2018-12-31T09:34:24.282Z,9.60
2018-12-31T09:36:53.018Z,9.50
2018-12-31T09:39:21.702Z,9.40
2018-12-31T09:41:50.383Z,9.40
2018-12-31T09:44:18.812Z,9.40
2018-12-31T09:46:47.219Z,9.40
2018-12-31T09:49:15.943Z,9.30
2018-12-31T09:51:44.354Z,9.40
2018-12-31T09:54:13.116Z,9.40
2018-12-31T09:56:41.527Z,9.40
2018-12-31T09:59:09.937Z,9.40
2018-12-31T10:01:38.420Z,9.40
2018-12-31T10:04:07.127Z,9.40
2018-12-31T10:06:35.526Z,9.50
2018-12-31T10:09:05.827Z,9.50
2018-12-31T10:11:34.299Z,9.50
2018-12-31T10:14:03.002Z,9.50
2018-12-31T10:16:31.411Z,9.60
2018-12-31T10:18:59.834Z,9.60
2018-12-31T10:21:28.225Z,9.60
2018-12-31T10:23:56.928Z,9.60
2018-12-31T10:26:25.325Z,9.70
2018-12-31T10:28:53.998Z,9.60
2018-12-31T10:31:22.393Z,9.70
2018-12-31T10:33:51.060Z,9.70
2018-12-31T10:36:19.463Z,9.70
2018-12-31T10:38:51.171Z,9.70
2018-12-31T10:41:18.253Z,9.70
2018-12-31T10:43:46.895Z,9.70
2018-12-31T10:46:15.302Z,9.70
2018-12-31T10:48:43.713Z,9.60
2018-12-31T10:51:12.376Z,9.70
2018-12-31T10:53:40.879Z,9.70
2018-12-31T10:56:09.287Z,9.60
2018-12-31T10:58:38.023Z,9.60
2018-12-31T11:01:06.712Z,9.60
2018-12-31T11:03:35.389Z,9.70
2018-12-31T11:06:03.814Z,9.70
2018-12-31T11:08:32.216Z,9.70
2018-12-31T11:11:00.629Z,9.70
2018-12-31T11:13:29.021Z,9.70
2018-12-31T11:15:57.704Z,9.70
2018-12-31T11:18:26.381Z,9.70
2018-12-31T11:20:55.083Z,9.70
2018-12-31T11:23:23.491Z,9.70
2018-12-31T11:25:51.902Z,9.70
2018-12-31T11:28:20.312Z,9.70
2018-12-31T11:30:49.015Z,10.20
2018-12-31T11:33:17.432Z,10.30
2018-12-31T11:35:46.177Z,10.20
2018-12-31T11:38:14.862Z,10.10
2018-12-31T11:40:43.642Z,10.00
2018-12-31T11:43:12.071Z,9.80
2018-12-31T11:45:40.823Z,9.70
2018-12-31T11:48:09.217Z,9.60
2018-12-31T11:50:37.871Z,9.60
2018-12-31T11:53:06.266Z,9.70
2018-12-31T11:55:34.687Z,9.60
2018-12-31T11:58:03.421Z,9.60
2018-12-31T12:00:32.120Z,9.60
2018-12-31T12:03:00.752Z,9.50
2018-12-31T12:05:29.171Z,9.60
2018-12-31T12:07:57.866Z,9.60
2018-12-31T12:10:26.610Z,9.60
2018-12-31T12:12:55.034Z,9.60
2018-12-31T12:15:23.742Z,9.60
2018-12-31T12:17:52.205Z,9.60
2018-12-31T12:20:20.648Z,9.50
2018-12-31T12:22:49.071Z,9.60
2018-12-31T12:25:17.752Z,9.60
2018-12-31T12:27:46.165Z,9.60
2018-12-31T12:30:14.564Z,9.60
2018-12-31T12:32:43.459Z,9.60
2018-12-31T12:35:11.862Z,9.70
2018-12-31T12:37:48.167Z,9.90
2018-12-31T12:40:11.016Z,10.00
2018-12-31T12:42:39.683Z,10.00
2018-12-31T12:45:08.138Z,9.90
2018-12-31T12:47:36.586Z,9.90
2018-12-31T12:50:05.959Z,9.80
2018-12-31T12:52:34.355Z,9.80
2018-12-31T12:55:02.758Z,9.70
2018-12-31T12:57:31.451Z,9.70
2018-12-31T13:00:00.212Z,9.70
2018-12-31T13:02:28.674Z,9.60
2018-12-31T13:05:03.639Z,9.60
2018-12-31T13:07:27.236Z,9.60
2018-12-31T13:09:56.149Z,9.60
2018-12-31T13:12:24.570Z,9.60
2018-12-31T13:14:52.987Z,9.60
2018-12-31T13:17:21.470Z,9.60
2018-12-31T13:19:49.883Z,10.80
2018-12-31T13:22:18.670Z,11.50
2018-12-31T13:24:47.068Z,11.10
2018-12-31T13:27:15.503Z,10.70
2018-12-31T13:29:44.210Z,10.40
2018-12-31T13:32:12.631Z,10.20
2018-12-31T13:34:41.513Z,10.00
2018-12-31T13:37:09.918Z,9.90
2018-12-31T13:39:38.651Z,9.90
2018-12-31T13:42:07.330Z,10.60
2018-12-31T13:44:35.738Z,12.60
2018-12-31T13:47:04.143Z,13.70
2018-12-31T13:49:32.591Z,12.80
2018-12-31T13:52:01.370Z,12.20
2018-12-31T13:54:30.051Z,11.60
2018-12-31T13:56:58.445Z,11.20
2018-12-31T13:59:26.853Z,10.90
2018-12-31T14:01:55.527Z,10.60
2018-12-31T14:04:23.947Z,10.40
2018-12-31T14:06:52.364Z,10.30
2018-12-31T14:09:20.775Z,10.20
2018-12-31T14:11:49.183Z,10.10
2018-12-31T14:14:17.598Z,10.00
2018-12-31T14:16:45.996Z,10.10
2018-12-31T14:19:14.424Z,11.00
2018-12-31T14:21:42.822Z,10.90
2018-12-31T14:24:11.535Z,10.80
2018-12-31T14:26:39.926Z,10.70
2018-12-31T14:29:08.338Z,10.50
2018-12-31T14:31:36.751Z,10.30
2018-12-31T14:34:05.157Z,10.30
2018-12-31T14:36:33.830Z,10.20
2018-12-31T14:39:02.619Z,10.00
2018-12-31T14:41:31.021Z,10.00
2018-12-31T14:43:59.683Z,10.10
2018-12-31T14:46:28.100Z,10.10
2018-12-31T14:48:56.503Z,10.00
2018-12-31T14:51:25.263Z,10.10
2018-12-31T14:53:53.679Z,10.10
2018-12-31T14:56:22.399Z,10.00
2018-12-31T14:58:51.087Z,10.00
2018-12-31T15:01:19.776Z,10.00
2018-12-31T15:03:48.570Z,9.90
2018-12-31T15:06:17.252Z,9.80
2018-12-31T15:08:45.649Z,9.90
2018-12-31T15:11:14.058Z,10.10
2018-12-31T15:13:42.470Z,10.70
2018-12-31T15:16:11.151Z,10.50
2018-12-31T15:18:40.476Z,10.30
2018-12-31T15:21:09.165Z,10.20
2018-12-31T15:23:37.867Z,10.10
2018-12-31T15:26:06.282Z,10.00
2018-12-31T15:28:34.673Z,9.90
2018-12-31T15:31:03.089Z,9.70
2018-12-31T15:33:31.778Z,9.70
2018-12-31T15:36:00.485Z,9.70
2018-12-31T15:38:28.875Z,9.70
2018-12-31T15:40:57.636Z,9.70
2018-12-31T15:43:26.334Z,9.60
2018-12-31T15:45:54.741Z,9.60
2018-12-31T15:48:23.129Z,9.60
2018-12-31T15:50:51.862Z,9.70
2018-12-31T15:53:20.290Z,9.70
2018-12-31T15:55:48.940Z,9.70
2018-12-31T15:58:17.338Z,9.70
2018-12-31T16:00:45.741Z,9.70
2018-12-31T16:03:14.145Z,9.60
2018-12-31T16:05:42.558Z,9.60
2018-12-31T16:08:11.329Z,9.50
2018-12-31T16:10:39.734Z,9.40
2018-12-31T16:13:08.407Z,9.40
2018-12-31T16:15:36.817Z,9.50
2018-12-31T16:18:05.866Z,9.50
2018-12-31T16:20:34.422Z,9.50
2018-12-31T16:23:02.836Z,9.60
2018-12-31T16:25:31.242Z,9.60
2018-12-31T16:27:59.655Z,9.70
2018-12-31T16:30:28.068Z,9.60
2018-12-31T16:32:56.478Z,9.50
2018-12-31T16:35:24.910Z,9.40
2018-12-31T16:37:53.310Z,9.40
2018-12-31T16:40:21.714Z,9.40
2018-12-31T16:42:50.122Z,9.50
2018-12-31T16:45:18.529Z,9.40
2018-12-31T16:47:47.378Z,9.40
2018-12-31T16:50:15.783Z,9.30
2018-12-31T16:52:44.199Z,9.30
2018-12-31T16:55:12.912Z,9.30
2018-12-31T16:57:41.317Z,9.30
2018-12-31T17:00:10.106Z,9.30
2018-12-31T17:02:38.533Z,9.40
2018-12-31T17:05:07.101Z,9.40
2018-12-31T17:07:35.535Z,9.40
2018-12-31T17:10:05.979Z,9.40
2018-12-31T17:12:34.394Z,9.40
2018-12-31T17:15:03.109Z,9.30
2018-12-31T17:17:31.513Z,9.30
2018-12-31T17:19:59.909Z,9.30
2018-12-31T17:22:28.659Z,9.20
2018-12-31T17:24:57.062Z,9.20
2018-12-31T17:27:25.479Z,9.20
2018-12-31T17:29:54.202Z,9.20
2018-12-31T17:32:22.615Z,9.10
2018-12-31T17:34:51.198Z,9.00
2018-12-31T17:37:19.618Z,9.20
2018-12-31T17:39:48.645Z,9.30
2018-12-31T17:42:17.327Z,9.30
2018-12-31T17:44:46.013Z,9.30
2018-12-31T17:47:14.429Z,9.20
2018-12-31T17:49:42.907Z,9.20
2018-12-31T17:52:11.675Z,9.20
2018-12-31T17:54:40.294Z,9.10
2018-12-31T17:57:09.036Z,9.10
2018-12-31T17:59:37.728Z,9.10
2018-12-31T18:02:06.209Z,9.20
2018-12-31T18:04:34.899Z,9.20
2018-12-31T18:07:03.574Z,9.30
2018-12-31T18:09:31.994Z,9.20
2018-12-31T18:12:00.737Z,9.30
2018-12-31T18:14:29.436Z,9.30
2018-12-31T18:16:58.119Z,9.90
2018-12-31T18:19:26.812Z,9.80
2018-12-31T18:21:55.206Z,9.70
2018-12-31T18:24:23.692Z,9.60
2018-12-31T18:26:52.167Z,9.60
2018-12-31T18:29:20.579Z,9.50
2018-12-31T18:31:49.351Z,9.40
2018-12-31T18:34:18.107Z,11.80
2018-12-31T18:36:46.519Z,11.70
2018-12-31T18:39:14.946Z,11.30
2018-12-31T18:41:43.345Z,10.90
2018-12-31T18:44:12.143Z,10.60
2018-12-31T18:46:40.631Z,10.30
2018-12-31T18:49:09.299Z,10.00
2018-12-31T18:51:37.996Z,9.80
2018-12-31T18:54:06.500Z,9.60
2018-12-31T18:56:34.911Z,9.50
2018-12-31T18:59:03.323Z,9.40
2018-12-31T19:01:32.023Z,9.30
2018-12-31T19:04:00.439Z,9.30
2018-12-31T19:06:28.910Z,9.30
2018-12-31T19:08:57.560Z,9.40
2018-12-31T19:11:26.247Z,9.30
2018-12-31T19:13:54.935Z,9.20
2018-12-31T19:16:23.633Z,9.30
2018-12-31T19:18:52.309Z,9.30
2018-12-31T19:21:20.995Z,9.20
2018-12-31T19:23:49.795Z,9.20
2018-12-31T19:26:18.503Z,9.20
2018-12-31T19:28:47.168Z,9.10
2018-12-31T19:31:15.562Z,9.10
2018-12-31T19:33:43.984Z,9.00
2018-12-31T19:36:12.454Z,9.00
2018-12-31T19:38:41.107Z,9.10
2018-12-31T19:41:09.508Z,9.10
2018-12-31T19:43:37.933Z,9.10
2018-12-31T19:46:06.343Z,9.10
2018-12-31T19:48:34.755Z,9.10
2018-12-31T19:51:03.602Z,9.20
2018-12-31T19:53:32.094Z,9.20
2018-12-31T19:56:00.510Z,9.20
2018-12-31T19:58:29.242Z,9.10
2018-12-31T20:00:57.930Z,9.00
2018-12-31T20:03:27.027Z,8.90
2018-12-31T20:05:55.489Z,9.00
2018-12-31T20:08:23.907Z,8.90
2018-12-31T20:10:52.576Z,8.90
2018-12-31T20:13:20.990Z,8.90
2018-12-31T20:15:49.743Z,8.90
2018-12-31T20:18:18.150Z,8.80
2018-12-31T20:20:46.566Z,8.90
2018-12-31T20:23:14.979Z,8.80
2018-12-31T20:25:43.400Z,8.80
2018-12-31T20:28:11.914Z,8.80
2018-12-31T20:30:40.626Z,8.70
2018-12-31T20:33:09.319Z,8.70
2018-12-31T20:35:38.002Z,8.80
2018-12-31T20:38:06.406Z,8.80
2018-12-31T20:40:34.829Z,8.80
2018-12-31T20:43:03.304Z,8.80
2018-12-31T20:45:32.202Z,8.70
2018-12-31T20:48:01.873Z,8.70
2018-12-31T20:50:43.843Z,8.60
2018-12-31T20:53:10.706Z,8.70
2018-12-31T20:55:39.375Z,8.80
2018-12-31T20:58:07.786Z,8.80
2018-12-31T21:00:36.212Z,8.90
2018-12-31T21:03:04.635Z,8.80
2018-12-31T21:05:33.025Z,8.80
2018-12-31T21:08:01.786Z,8.70
2018-12-31T21:10:30.882Z,8.60
2018-12-31T21:12:59.325Z,8.70
2018-12-31T21:15:27.747Z,8.70
2018-12-31T21:17:56.144Z,8.80
2018-12-31T21:20:24.579Z,8.80
2018-12-31T21:22:53.003Z,8.70
2018-12-31T21:25:21.400Z,9.70
2018-12-31T21:27:50.158Z,12.10
2018-12-31T21:30:18.566Z,12.90
2018-12-31T21:32:46.977Z,11.80
2018-12-31T21:35:15.388Z,11.20
2018-12-31T21:37:43.993Z,10.80
2018-12-31T21:40:12.655Z,10.30
2018-12-31T21:42:41.375Z,10.00
2018-12-31T21:45:09.770Z,9.60
2018-12-31T21:47:38.182Z,9.40
2018-12-31T21:50:07.090Z,9.40
2018-12-31T21:52:35.786Z,9.20
2018-12-31T21:55:05.023Z,9.00
2018-12-31T21:57:33.432Z,9.00
2018-12-31T22:00:01.842Z,9.00
2018-12-31T22:02:30.246Z,9.00
2018-12-31T22:04:59.011Z,9.00
2018-12-31T22:07:27.699Z,9.00
2018-12-31T22:09:56.497Z,8.90
2018-12-31T22:12:25.167Z,8.80
2018-12-31T22:14:53.859Z,8.90
2018-12-31T22:17:22.650Z,8.90
2018-12-31T22:19:51.059Z,8.90
2018-12-31T22:22:19.479Z,8.90
2018-12-31T22:24:48.186Z,8.90
2018-12-31T22:27:16.601Z,8.90
2018-12-31T22:29:45.016Z,8.80
2018-12-31T22:32:13.733Z,8.80
2018-12-31T22:34:42.192Z,8.80
2018-12-31T22:37:11.024Z,8.80
2018-12-31T22:39:39.803Z,8.80
2018-12-31T22:42:08.486Z,8.80
2018-12-31T22:44:36.898Z,8.80
2018-12-31T22:47:05.652Z,8.80
2018-12-31T22:49:34.298Z,8.70
2018-12-31T22:52:03.026Z,8.60
2018-12-31T22:54:31.709Z,8.60
2018-12-31T22:57:00.498Z,8.60
2018-12-31T22:59:28.995Z,8.50
2018-12-31T23:01:57.505Z,8.40
2018-12-31T23:04:25.927Z,8.40
2018-12-31T23:06:55.806Z,8.40
2018-12-31T23:09:24.575Z,8.30
2018-12-31T23:11:53.062Z,8.40
2018-12-31T23:14:21.560Z,8.40
2018-12-31T23:16:50.299Z,8.50
2018-12-31T23:19:18.718Z,8.40
2018-12-31T23:21:47.468Z,8.40
2018-12-31T23:24:16.170Z,8.40
2018-12-31T23:26:44.562Z,8.40
2018-12-31T23:29:12.974Z,8.30
2018-12-31T23:31:41.378Z,8.20
2018-12-31T23:34:09.799Z,8.30
2018-12-31T23:36:38.773Z,8.30
2018-12-31T23:39:07.363Z,8.30
2018-12-31T23:41:35.774Z,8.20
2018-12-31T23:44:04.195Z,8.20
2018-12-31T23:46:32.610Z,8.20
2018-12-31T23:49:01.507Z,8.20
2018-12-31T23:51:29.921Z,8.30
2018-12-31T23:53:58.331Z,8.30
2018-12-31T23:56:26.747Z,8.40
2018-12-31T23:58:55.166Z,8.30
